createdAt,value
2019-03-31T00:01:56.070Z,3.1
2019-03-31T00:04:56.162Z,3.2
2019-03-31T00:07:56.039Z,3.1
2019-03-31T00:10:56.264Z,3.2
2019-03-31T00:13:55.984Z,3.1
2019-03-31T00:16:56.175Z,3.2
2019-03-31T00:19:56.148Z,3.4
2019-03-31T00:22:56.151Z,3.4
2019-03-31T00:25:56.116Z,3.4
2019-03-31T00:28:56.228Z,3.3
2019-03-31T00:31:55.974Z,3.2
2019-03-31T00:34:56.057Z,3.4
2019-03-31T00:37:56.096Z,3.1
2019-03-31T00:40:56.212Z,3.2
2019-03-31T00:43:56.160Z,3.1
2019-03-31T00:46:55.988Z,3
2019-03-31T00:49:56.047Z,3.2
2019-03-31T00:52:55.985Z,3.2
2019-03-31T00:55:56.119Z,3.2
2019-03-31T00:58:56.154Z,3.1
2019-03-31T01:01:56.300Z,3.1
2019-03-31T01:04:56.237Z,3
2019-03-31T01:07:56.091Z,3.1
2019-03-31T01:10:58.135Z,3.1
2019-03-31T01:13:56.067Z,3
2019-03-31T01:16:56.175Z,3.1
2019-03-31T01:19:56.148Z,3.1
2019-03-31T01:22:56.189Z,3.3
2019-03-31T01:25:56.077Z,3.3
2019-03-31T01:28:56.064Z,3.1
2019-03-31T01:31:56.057Z,3.1
2019-03-31T01:34:56.081Z,3.2
2019-03-31T01:37:56.193Z,3.2
2019-03-31T01:40:56.246Z,3.3
2019-03-31T01:43:55.922Z,3.1
2019-03-31T01:46:56.086Z,3.2
2019-03-31T01:49:55.881Z,3.2
2019-03-31T01:52:55.942Z,3.2
2019-03-31T01:55:56.090Z,3.2
2019-03-31T01:58:56.212Z,3.3
2019-03-31T02:02:05.110Z,3.3
2019-03-31T02:04:55.977Z,3.3
2019-03-31T02:07:56.110Z,3.3
2019-03-31T02:10:56.188Z,3.3
2019-03-31T02:13:56.191Z,3.2
2019-03-31T02:16:56.084Z,3.1
2019-03-31T02:19:56.185Z,3.1
2019-03-31T02:22:55.960Z,3.2
2019-03-31T02:25:55.985Z,3.2
2019-03-31T02:28:56.736Z,3.3
2019-03-31T02:31:56.026Z,3.3
2019-03-31T02:34:56.262Z,3.4
2019-03-31T02:37:56.301Z,3.4
2019-03-31T02:40:56.042Z,3.4
2019-03-31T02:43:56.039Z,3.3
2019-03-31T02:46:56.061Z,3.3
2019-03-31T02:49:56.193Z,3.4
2019-03-31T02:52:56.126Z,3.4
2019-03-31T02:55:56.335Z,3.4
2019-03-31T02:58:55.978Z,3.9
2019-03-31T03:01:56.071Z,3.6
2019-03-31T03:04:56.355Z,3.5
2019-03-31T03:07:56.095Z,3.4
2019-03-31T03:10:56.190Z,3.4
2019-03-31T03:13:56.189Z,3.3
2019-03-31T03:16:55.934Z,3.5
2019-03-31T03:19:56.050Z,3.5
2019-03-31T03:22:56.047Z,3.4
2019-03-31T03:25:57.462Z,3.3
2019-03-31T03:28:56.077Z,3.4
2019-03-31T03:31:56.554Z,3.3
2019-03-31T03:34:56.394Z,3.5
2019-03-31T03:37:55.967Z,3.4
2019-03-31T03:40:56.044Z,3.4
2019-03-31T03:44:03.236Z,3.3
2019-03-31T03:46:56.271Z,3.4
2019-03-31T03:49:56.343Z,3.4
2019-03-31T03:52:56.001Z,3.4
2019-03-31T03:55:56.039Z,3.3
2019-03-31T03:58:56.077Z,3.4
2019-03-31T04:01:56.048Z,3.4
2019-03-31T04:04:56.179Z,3.4
2019-03-31T04:07:56.114Z,3.4
2019-03-31T04:10:55.907Z,3.3
2019-03-31T04:13:56.169Z,3.3
2019-03-31T04:16:55.939Z,3.4
2019-03-31T04:19:56.099Z,3.3
2019-03-31T04:22:56.263Z,3.2
2019-03-31T04:25:56.225Z,3.2
2019-03-31T04:28:56.272Z,3.3
2019-03-31T04:31:56.103Z,3.3
2019-03-31T04:34:55.985Z,3.3
2019-03-31T04:37:56.240Z,3.4
2019-03-31T04:40:56.051Z,3.3
2019-03-31T04:43:56.118Z,3.3
2019-03-31T04:46:56.190Z,3.3
2019-03-31T04:49:55.972Z,3.2
2019-03-31T04:52:56.112Z,3.3
2019-03-31T04:55:56.006Z,3.2
2019-03-31T04:58:56.599Z,3.2
2019-03-31T05:01:56.147Z,3.3
2019-03-31T05:04:56.095Z,3.2
2019-03-31T05:07:55.862Z,3.3
2019-03-31T05:10:55.880Z,3.3
2019-03-31T05:13:55.960Z,3.3
2019-03-31T05:16:56.016Z,3.4
2019-03-31T05:19:56.557Z,3.3
2019-03-31T05:22:56.078Z,3.3
2019-03-31T05:25:55.981Z,3.3
2019-03-31T05:28:55.965Z,3.2
2019-03-31T05:31:55.999Z,3.3
2019-03-31T05:34:56.038Z,3.2
2019-03-31T05:37:56.050Z,3.3
2019-03-31T05:40:56.313Z,3.2
2019-03-31T05:44:06.443Z,3.1
2019-03-31T05:46:55.964Z,3.2
2019-03-31T05:49:55.920Z,3.3
2019-03-31T05:52:56.091Z,3.3
2019-03-31T05:55:56.134Z,3.3
2019-03-31T05:58:56.201Z,3.2
2019-03-31T06:01:55.944Z,3.2
2019-03-31T06:04:55.914Z,3.2
2019-03-31T06:07:55.942Z,3.1
2019-03-31T06:10:55.968Z,3.2
2019-03-31T06:13:56.115Z,3.3
2019-03-31T06:16:56.191Z,3.3
2019-03-31T06:19:56.186Z,3.3
2019-03-31T06:22:56.024Z,3.2
2019-03-31T06:25:56.023Z,3.3
2019-03-31T06:28:56.005Z,3.3
2019-03-31T06:31:55.942Z,3.4
2019-03-31T06:34:56.060Z,3.2
2019-03-31T06:37:55.876Z,3.3
2019-03-31T06:40:55.955Z,3.3
2019-03-31T06:43:55.884Z,3.3
2019-03-31T06:46:56.039Z,3.4
2019-03-31T06:49:56.122Z,3.2
2019-03-31T06:52:56.047Z,3.1
2019-03-31T06:55:55.805Z,3.2
2019-03-31T06:58:55.832Z,3.3
2019-03-31T07:01:55.979Z,3.3
2019-03-31T07:05:02.449Z,3.3
2019-03-31T07:07:55.984Z,3.3
2019-03-31T07:10:55.973Z,3.3
2019-03-31T07:13:56.032Z,3.2
2019-03-31T07:16:55.878Z,3.2
2019-03-31T07:19:55.936Z,3.1
2019-03-31T07:22:55.938Z,3.3
2019-03-31T07:25:55.977Z,3.2
2019-03-31T07:28:56.250Z,3.1
2019-03-31T07:31:56.032Z,3.2
2019-03-31T07:34:55.822Z,3
2019-03-31T07:37:55.974Z,3
2019-03-31T07:41:14.729Z,3
2019-03-31T07:43:55.939Z,3
2019-03-31T07:46:55.966Z,3.1
2019-03-31T07:49:56.183Z,3.1
2019-03-31T07:52:55.875Z,3
2019-03-31T07:55:55.883Z,3
2019-03-31T07:58:56.518Z,3
2019-03-31T08:01:55.973Z,3
2019-03-31T08:04:55.960Z,3
2019-03-31T08:07:56.026Z,3
2019-03-31T08:10:55.873Z,3
2019-03-31T08:13:55.943Z,2.9
2019-03-31T08:16:55.838Z,2.9
2019-03-31T08:19:55.986Z,3
2019-03-31T08:22:57.543Z,2.9
2019-03-31T08:25:55.977Z,2.9
2019-03-31T08:28:58.961Z,2.8
2019-03-31T08:31:55.867Z,2.9
2019-03-31T08:34:55.863Z,2.9
2019-03-31T08:37:56.056Z,2.9
2019-03-31T08:40:56.058Z,3
2019-03-31T08:43:56.146Z,3.1
2019-03-31T08:46:55.831Z,3
2019-03-31T08:49:55.948Z,3
2019-03-31T08:52:55.970Z,3.1
2019-03-31T08:55:56.980Z,2.9
2019-03-31T08:58:56.173Z,2.9
2019-03-31T09:01:55.920Z,3
2019-03-31T09:04:56.009Z,3
2019-03-31T09:07:55.813Z,2.9
2019-03-31T09:10:55.939Z,2.9
2019-03-31T09:13:56.126Z,2.9
2019-03-31T09:16:55.890Z,3.3
2019-03-31T09:19:55.953Z,3.5
2019-03-31T09:22:55.977Z,3.3
2019-03-31T09:25:55.866Z,3.1
2019-03-31T09:28:55.761Z,3
2019-03-31T09:31:55.869Z,4
2019-03-31T09:34:56.028Z,3.6
2019-03-31T09:37:56.055Z,4
2019-03-31T09:40:55.931Z,3.4
2019-03-31T09:43:55.855Z,3.1
2019-03-31T09:46:55.800Z,4.9
2019-03-31T09:49:55.867Z,4.8
2019-03-31T09:52:56.001Z,6.7
2019-03-31T09:55:56.058Z,5.5
2019-03-31T09:58:55.980Z,4.2
2019-03-31T10:01:55.999Z,4.1
2019-03-31T10:04:55.818Z,4.2
2019-03-31T10:07:55.922Z,4.5
2019-03-31T10:10:55.932Z,4
2019-03-31T10:13:55.863Z,4.3
2019-03-31T10:16:56.065Z,4.1
2019-03-31T10:19:55.975Z,3.8
2019-03-31T10:22:55.858Z,3.9
2019-03-31T10:25:55.894Z,3.7
2019-03-31T10:28:55.926Z,4.7
2019-03-31T10:31:55.994Z,5.5
2019-03-31T10:34:55.937Z,7.3
2019-03-31T10:37:56.064Z,5.9
2019-03-31T10:40:55.710Z,5.3
2019-03-31T10:43:57.714Z,4.1
2019-03-31T10:46:58.926Z,4.3
2019-03-31T10:49:55.864Z,4.5
2019-03-31T10:52:55.900Z,4.6
2019-03-31T10:55:55.891Z,4.8
2019-03-31T10:58:55.815Z,5.5
2019-03-31T11:01:55.865Z,5.1
2019-03-31T11:04:55.918Z,5.6
2019-03-31T11:07:55.878Z,4.4
2019-03-31T11:10:55.856Z,5.2
2019-03-31T11:13:55.945Z,4.5
2019-03-31T11:16:55.945Z,3.9
2019-03-31T11:19:55.742Z,3.7
2019-03-31T11:22:55.912Z,4.7
2019-03-31T11:25:55.960Z,4.2
2019-03-31T11:28:55.910Z,4
2019-03-31T11:31:55.997Z,4.5
2019-03-31T11:34:56.003Z,3.8
2019-03-31T11:37:55.845Z,4.3
2019-03-31T11:40:55.775Z,4.1
2019-03-31T11:43:55.962Z,4.7
2019-03-31T11:46:55.861Z,3.8
2019-03-31T11:49:55.911Z,4.8
2019-03-31T11:52:55.935Z,5.3
2019-03-31T11:55:55.720Z,4.6
2019-03-31T11:58:55.762Z,4.1
2019-03-31T12:01:55.895Z,3.6
2019-03-31T12:04:56.093Z,3.6
2019-03-31T12:07:55.922Z,3.4
2019-03-31T12:10:56.291Z,4.3
2019-03-31T12:13:55.799Z,3.7
2019-03-31T12:16:55.842Z,3.8
2019-03-31T12:19:55.833Z,3.8
2019-03-31T12:22:55.931Z,3.2
2019-03-31T12:25:56.030Z,4.7
2019-03-31T12:28:56.022Z,3.7
2019-03-31T12:31:55.704Z,3.3
2019-03-31T12:34:55.963Z,3.6
2019-03-31T12:37:55.959Z,3.2
2019-03-31T12:40:55.835Z,3.3
2019-03-31T12:43:55.935Z,2.9
2019-03-31T12:46:56.960Z,3.1
2019-03-31T12:49:55.825Z,3
2019-03-31T12:52:55.774Z,2.9
2019-03-31T12:56:01.079Z,2.6
2019-03-31T12:58:55.917Z,2.6
2019-03-31T13:01:56.075Z,2.6
2019-03-31T13:04:58.261Z,6.5
2019-03-31T13:07:57.386Z,5.1
2019-03-31T13:10:55.742Z,4.4
2019-03-31T13:13:55.809Z,4.2
2019-03-31T13:16:55.898Z,3.8
2019-03-31T13:19:55.992Z,3.8
2019-03-31T13:22:55.781Z,4
2019-03-31T13:25:55.757Z,3.5
2019-03-31T13:28:55.782Z,3.9
2019-03-31T13:31:55.830Z,4.3
2019-03-31T13:34:55.900Z,4
2019-03-31T13:38:12.082Z,3.8
2019-03-31T13:40:55.705Z,3.1
2019-03-31T13:43:55.789Z,3.1
2019-03-31T13:46:55.854Z,3.2
2019-03-31T13:49:55.786Z,3.1
2019-03-31T13:52:55.840Z,3.7
2019-03-31T13:55:56.149Z,3.4
2019-03-31T13:58:55.712Z,4.2
2019-03-31T14:01:55.761Z,3.9
2019-03-31T14:04:55.904Z,3.7
2019-03-31T14:07:55.841Z,3.4
2019-03-31T14:10:55.901Z,3.1
2019-03-31T14:13:56.591Z,3.2
2019-03-31T14:22:12.200Z,2.3
2019-03-31T14:25:12.227Z,2.3
2019-03-31T14:28:12.462Z,2.9
2019-03-31T14:31:12.343Z,3.3
2019-03-31T14:34:12.193Z,3.7
2019-03-31T14:37:12.157Z,3.9
2019-03-31T14:40:13.403Z,3.8
2019-03-31T14:43:12.442Z,7
2019-03-31T14:46:12.048Z,5.7
2019-03-31T14:49:12.212Z,4.5
2019-03-31T14:52:28.325Z,4.9
2019-03-31T14:55:12.208Z,4.9
2019-03-31T14:58:12.217Z,4.8
2019-03-31T15:01:12.251Z,5.6
2019-03-31T15:04:12.165Z,5.5
2019-03-31T15:07:12.472Z,5.7
2019-03-31T15:10:12.187Z,6.4
2019-03-31T15:13:12.265Z,7
2019-03-31T15:16:13.642Z,5.7
2019-03-31T15:19:12.256Z,5.7
2019-03-31T15:22:12.026Z,5.4
2019-03-31T15:25:12.114Z,5
2019-03-31T15:28:12.190Z,6.5
2019-03-31T15:31:12.125Z,4.4
2019-03-31T15:34:12.205Z,4.2
2019-03-31T15:37:12.207Z,5
2019-03-31T15:40:12.297Z,6.4
2019-03-31T15:43:12.114Z,6.7
2019-03-31T15:46:12.972Z,9.8
2019-03-31T15:49:12.234Z,8.4
2019-03-31T15:52:12.286Z,6.4
2019-03-31T15:55:12.366Z,5.6
2019-03-31T15:58:12.108Z,10.1
2019-03-31T16:01:12.101Z,8.3
2019-03-31T16:04:12.139Z,7.5
2019-03-31T16:07:12.111Z,6.6
2019-03-31T16:10:12.234Z,5.3
2019-03-31T16:13:12.439Z,4.7
2019-03-31T16:16:14.757Z,3.7
2019-03-31T16:19:12.132Z,3.7
2019-03-31T16:22:12.095Z,4.8
2019-03-31T16:25:12.123Z,4.8
2019-03-31T16:28:12.213Z,5.4
2019-03-31T16:31:12.287Z,5.3
2019-03-31T16:34:12.304Z,4.9
2019-03-31T16:37:12.527Z,8.1
2019-03-31T16:40:12.030Z,7.3
2019-03-31T16:43:12.158Z,6.9
2019-03-31T16:46:12.090Z,5.7
2019-03-31T16:49:12.195Z,5
2019-03-31T16:52:12.190Z,4.9
2019-03-31T16:55:12.114Z,4
2019-03-31T16:58:12.415Z,4.4
2019-03-31T17:01:12.212Z,3.7
2019-03-31T17:04:12.182Z,4.3
2019-03-31T17:07:13.985Z,4.5
2019-03-31T17:10:12.476Z,4.2
2019-03-31T17:13:12.071Z,3.5
2019-03-31T17:16:15.968Z,2.9
2019-03-31T17:19:12.050Z,3
2019-03-31T17:22:13.159Z,3.3
2019-03-31T17:25:12.243Z,3.5
2019-03-31T17:28:12.253Z,3.4
2019-03-31T17:34:12.154Z,3.8
2019-03-31T17:37:12.124Z,3.8
2019-03-31T17:40:12.119Z,3.6
2019-03-31T17:43:12.322Z,3.5
2019-03-31T17:46:12.266Z,3.5
2019-03-31T17:49:12.126Z,2.9
2019-03-31T17:52:12.022Z,3
2019-03-31T17:55:12.150Z,2.7
2019-03-31T17:58:12.244Z,3.2
2019-03-31T18:01:12.130Z,3
2019-03-31T18:04:12.120Z,2.5
2019-03-31T18:07:12.058Z,2.3
2019-03-31T18:10:21.867Z,2.4
2019-03-31T18:13:12.075Z,2.2
2019-03-31T18:16:12.228Z,2.8
2019-03-31T18:19:12.217Z,3.2
2019-03-31T18:22:17.570Z,2.9
2019-03-31T18:25:12.090Z,2.6
2019-03-31T18:28:12.053Z,2.4
2019-03-31T18:31:13.072Z,3.1
2019-03-31T18:34:13.184Z,2.9
2019-03-31T18:37:12.787Z,2.7
2019-03-31T18:40:12.179Z,3.1
2019-03-31T18:43:12.101Z,3
2019-03-31T18:46:11.989Z,3.4
2019-03-31T18:49:12.033Z,3.8
2019-03-31T18:52:12.054Z,5.6
2019-03-31T18:55:12.323Z,4.2
2019-03-31T18:58:12.261Z,4
2019-03-31T19:01:12.909Z,3.8
2019-03-31T19:04:12.033Z,3.8
2019-03-31T19:07:12.149Z,4.5
2019-03-31T19:10:25.461Z,4.1
2019-03-31T19:13:12.811Z,3.6
2019-03-31T19:16:12.150Z,4.1
2019-03-31T19:19:12.320Z,3.7
2019-03-31T19:22:12.068Z,3.4
2019-03-31T19:25:12.061Z,3.5
2019-03-31T19:28:12.187Z,4.2
2019-03-31T19:31:12.168Z,4
2019-03-31T19:34:12.201Z,3.7
2019-03-31T19:37:12.194Z,3.5
2019-03-31T19:40:11.921Z,3.3
2019-03-31T19:43:12.047Z,3.2
2019-03-31T19:46:12.121Z,3.3
2019-03-31T19:49:12.162Z,3.4
2019-03-31T19:52:12.275Z,3.4
2019-03-31T19:55:12.126Z,3.3
2019-03-31T19:58:12.090Z,3.4
2019-03-31T20:01:12.019Z,3.9
2019-03-31T20:04:12.120Z,3.7
2019-03-31T20:07:12.484Z,3.9
2019-03-31T20:10:14.881Z,4.1
2019-03-31T20:13:12.277Z,8.2
2019-03-31T20:16:12.057Z,5.8
2019-03-31T20:19:11.994Z,4.8
2019-03-31T20:22:12.154Z,5.2
2019-03-31T20:25:12.096Z,4.4
2019-03-31T20:28:12.351Z,4.9
2019-03-31T20:31:11.965Z,5.4
2019-03-31T20:34:12.301Z,5.1
2019-03-31T20:37:12.142Z,4.7
2019-03-31T20:40:12.268Z,4.3
2019-03-31T20:43:12.120Z,4.1
2019-03-31T20:46:11.885Z,3.9
2019-03-31T20:49:12.021Z,3.6
2019-03-31T20:52:11.965Z,3.3
2019-03-31T20:55:17.374Z,4
2019-03-31T20:58:12.052Z,3.9
2019-03-31T21:01:12.150Z,3.6
2019-03-31T21:04:11.931Z,3.5
2019-03-31T21:07:12.076Z,4.1
2019-03-31T21:10:12.138Z,3.6
2019-03-31T21:13:12.163Z,3.7
2019-03-31T21:16:12.172Z,3.7
2019-03-31T21:19:12.297Z,3.5
2019-03-31T21:22:12.020Z,3.3
2019-03-31T21:25:14.387Z,3.2
2019-03-31T21:28:12.230Z,3.2
2019-03-31T21:31:12.185Z,3.1
2019-03-31T21:34:12.221Z,3.4
2019-03-31T21:37:11.988Z,3.4
2019-03-31T21:40:12.030Z,4.5
2019-03-31T21:43:12.005Z,4.3
2019-03-31T21:46:12.018Z,3.8
2019-03-31T21:49:12.110Z,3.5
2019-03-31T21:52:12.136Z,3.7
2019-03-31T21:55:12.190Z,3.4
2019-03-31T21:58:12.097Z,3.2
2019-03-31T22:01:12.061Z,3.3
2019-03-31T22:04:12.070Z,3.3
2019-03-31T22:07:12.160Z,3.3
2019-03-31T22:10:11.910Z,3.3
2019-03-31T22:13:12.017Z,3.5
2019-03-31T22:16:12.103Z,3.4
2019-03-31T22:19:12.238Z,3.4
2019-03-31T22:22:12.318Z,3.3
2019-03-31T22:25:12.264Z,3.3
2019-03-31T22:28:11.889Z,3.4
2019-03-31T22:31:11.937Z,3.8
2019-03-31T22:34:12.042Z,3.6
2019-03-31T22:37:12.081Z,3.5
2019-03-31T22:40:12.251Z,3.5
2019-03-31T22:43:11.868Z,3.4
2019-03-31T22:46:12.022Z,3.4
2019-03-31T22:49:11.947Z,3.4
2019-03-31T22:52:12.189Z,3.6
2019-03-31T22:55:12.074Z,3.5
2019-03-31T22:58:12.076Z,3.4
2019-03-31T23:01:11.898Z,3.6
2019-03-31T23:04:12.040Z,3.5
2019-03-31T23:07:12.018Z,3.5
2019-03-31T23:10:12.179Z,3.3
2019-03-31T23:13:12.071Z,3.3
2019-03-31T23:16:12.079Z,3.4
2019-03-31T23:19:11.897Z,3.5
2019-03-31T23:22:11.942Z,3.4
2019-03-31T23:25:12.047Z,3.6
2019-03-31T23:28:12.399Z,3.5
2019-03-31T23:31:12.132Z,3.4
2019-03-31T23:34:11.842Z,3.5
2019-03-31T23:37:11.885Z,3.4
2019-03-31T23:40:11.962Z,3.5
2019-03-31T23:43:11.969Z,3.4
2019-03-31T23:46:12.079Z,3.6
2019-03-31T23:49:12.166Z,3.6
2019-03-31T23:52:12.005Z,3.5
2019-03-31T23:55:11.947Z,3.9
2019-03-31T23:58:12.055Z,3.6
